Latest Weather Observations for Hindmarsh Island

IDS60801

Issued at 5:31 pm CDT Monday 22 December 2014 (issued every 30 minutes, with the page automatically refreshed every 10 minutes)

About weather observations | Map of weather stations | Latest weather observations for SA | Other Formats
Station Details ID: 023894 Name: HINDMARSH ISLAND AWS Lat: -35.52 Lon: 138.82 Height: 11.0 m
Data from the previous 72 hours. | See also: Recent months at Hindmarsh Island
Date/Time
CDT
Temp
°C
App
Temp
°C
Dew
Point
Rel
Hum
%
Delta-T
°C
Wind Press
QNH
hPa
Press
MSL
hPa
Rain
since 9 am
mm
Dir
 
Spd
km/h
Gust
km/h
Spd
kts
Gust
kts
22/05:30pm 18.7 19.5 15.8 83 1.7 NNE 6 13 3 7 1008.1 - 0.6
22/05:00pm 18.7 19.0 16.1 85 1.6 WSW 9 11 5 6 1008.3 - 0.6
22/04:30pm 18.2 16.8 15.6 85 1.5 SW 17 22 9 12 1008.1 - 0.6
22/04:00pm 18.6 16.6 15.5 82 1.8 SW 20 26 11 14 1007.8 - 0.2
22/03:30pm 19.0 17.4 16.0 83 1.8 SSW 19 24 10 13 1007.6 - 0.2
22/03:00pm 18.7 17.8 15.8 83 1.7 SSW 15 20 8 11 1008.3 1008.3 0.2
22/02:30pm 18.6 17.6 15.7 83 1.7 S 15 19 8 10 1008.7 - 0.2
22/02:00pm 18.7 17.4 15.8 83 1.7 SW 17 22 9 12 1009.3 - 0.2
22/01:30pm 19.0 17.2 15.5 80 2.1 SW 19 24 10 13 1009.9 - 0.0
22/01:00pm 18.8 16.0 15.3 80 2.1 SW 24 30 13 16 1009.7 - 0.0
22/12:30pm 19.0 15.5 15.5 80 2.1 SW 28 33 15 18 1009.7 - 0.0
22/12:00pm 19.5 15.0 15.4 77 2.4 SW 33 39 18 21 1009.7 1009.3 0.0
22/11:30am 20.0 16.8 15.4 75 2.7 SW 26 33 14 18 1009.3 - 0.0
22/11:00am 20.2 17.9 15.6 75 2.7 SW 22 30 12 16 1008.7 - 0.0
22/10:30am 20.3 20.6 15.1 72 3.1 S 7 11 4 6 1008.4 - 0.0
22/10:00am 19.8 19.4 15.2 75 2.7 SSE 11 17 6 9 1007.8 - 0.0
22/09:30am 19.7 18.9 15.1 75 2.7 SE 13 20 7 11 1007.7 - 0.0
22/09:00am 19.9 17.8 15.3 75 2.7 S 20 24 11 13 1007.9 - 0.0
22/08:30am 19.8 17.5 15.7 77 2.4 S 22 26 12 14 1007.7 - 0.0
22/08:00am 19.2 17.7 15.3 78 2.3 S 17 19 9 10 1007.4 - 0.0
22/07:30am 18.9 17.4 15.2 79 2.2 S 17 19 9 10 1007.2 - 0.0
22/07:00am 18.8 16.9 15.1 79 2.2 SSW 19 20 10 11 1007.6 - 0.0
22/06:30am 18.7 16.5 15.0 79 2.2 SSW 20 24 11 13 1007.8 - 0.0
22/06:00am 18.6 17.4 15.1 80 2.1 SSW 15 24 8 13 1008.0 1007.7 0.0
22/05:30am 18.6 17.8 15.1 80 2.0 SSW 13 19 7 10 1007.6 - 0.0
22/05:00am 18.5 16.8 14.8 79 2.2 SW 17 20 9 11 1007.7 - 0.0
22/04:30am 18.3 17.3 14.6 79 2.1 SW 13 17 7 9 1007.8 - 0.0
22/04:00am 18.4 17.1 14.9 80 2.0 S 15 17 8 9 1007.8 - 0.0
22/03:30am 18.0 16.6 14.5 80 2.0 S 15 19 8 10 1007.9 - 0.0
22/03:00am 18.1 16.5 15.0 82 1.8 SSW 17 20 9 11 1008.3 1008.3 0.0
22/02:30am 18.1 15.8 14.6 80 2.0 SSW 20 24 11 13 1008.9 - 0.0
22/02:00am 18.1 15.3 14.4 79 2.1 SSW 22 28 12 15 1009.4 - 0.0
22/01:30am 18.1 15.0 14.6 80 2.0 SSW 24 32 13 17 1009.9 - 0.0
22/01:00am 18.3 13.7 15.2 82 1.8 S 33 43 18 23 1009.5 - 0.0
22/12:30am 18.2 13.5 14.9 81 1.9 SSW 33 41 18 22 1010.9 - 0.0
22/12:00am 18.5 14.1 15.2 81 1.9 SW 32 37 17 20 1011.7 1011.5 0.0
 
Date/Time
CDT
Temp
°C
App
Temp
°C
Dew
Point
Rel
Hum
%
Delta-T
°C
Wind Press
QNH
hPa
Press
MSL
hPa
Rain
since 9 am
mm
Dir
 
Spd
km/h
Gust
km/h
Spd
kts
Gust
kts
21/11:30pm 18.3 14.1 14.6 79 2.1 SW 30 35 16 19 1011.8 - 0.0
21/11:00pm 18.3 15.5 14.4 78 2.2 SW 22 30 12 16 1011.8 - 0.0
21/10:30pm 18.4 15.3 14.5 78 2.3 SSW 24 30 13 16 1011.7 - 0.0
21/10:00pm 18.8 14.3 14.9 78 2.3 SSW 32 37 17 20 1010.9 - 0.0
21/09:30pm 19.3 16.6 14.6 74 2.7 SSW 22 28 12 15 1011.0 - 0.0
21/09:00pm 19.3 17.0 14.6 74 2.7 SSW 20 24 11 13 1010.7 1010.8 0.0
21/08:30pm 19.2 16.9 14.2 73 2.9 SW 19 22 10 12 1010.9 - 0.0
21/08:00pm 19.2 17.8 14.5 74 2.7 SSW 15 20 8 11 1010.8 - 0.0
21/07:30pm 19.4 18.0 14.6 74 2.8 S 15 19 8 10 1010.8 - 0.0
21/07:00pm 19.8 18.4 14.6 72 3.0 SSW 15 20 8 11 1010.8 - 0.0
21/06:30pm 19.6 17.6 15.0 75 2.7 SSW 19 22 10 12 1010.6 - 0.0
21/06:00pm 20.5 18.6 15.1 71 3.2 SSW 19 24 10 13 1010.6 1010.6 0.0
21/05:30pm 20.4 18.6 15.4 73 3.0 SSW 19 24 10 13 1010.9 - 0.0
21/05:00pm 21.3 17.9 15.8 71 3.3 SSW 28 35 15 19 1010.9 - 0.0
21/04:30pm 22.0 19.0 15.8 68 3.7 SSW 26 30 14 16 1010.9 - 0.0
21/04:00pm 22.4 19.7 15.7 66 4.0 S 24 30 13 16 1011.2 - 0.0
21/03:30pm 23.3 20.1 15.4 61 4.7 S 26 33 14 18 1011.4 - 0.0
21/03:00pm 22.2 18.8 15.8 67 3.8 S 28 33 15 18 1011.6 1011.6 0.0
21/02:30pm 22.4 18.3 16.0 67 3.9 S 32 35 17 19 1012.0 - 0.0
21/02:00pm 21.9 18.4 16.4 71 3.3 S 30 33 16 18 1012.2 - 0.0
21/01:30pm 22.4 18.1 15.5 65 4.1 S 32 37 17 20 1012.2 - 0.0
21/01:00pm 21.5 17.2 15.8 70 3.4 S 33 39 18 21 1012.4 - 0.0
21/12:30pm 22.5 17.6 16.3 68 3.8 S 37 43 20 23 1012.5 - 0.0
21/12:00pm 23.0 18.2 16.5 67 4.0 SSW 37 41 20 22 1012.6 1012.4 0.0
21/11:30am 23.4 17.4 16.4 64 4.3 SSW 43 54 23 29 1011.7 - 0.0
21/11:13am 27.7 21.1 13.6 42 8.4 SSW 41 59 22 32 1011.0 - 0.0
21/11:10am 27.5 20.1 13.1 41 8.5 SSW 44 57 24 31 1011.1 - 0.0
21/11:08am 30.8 25.8 12.2 32 10.9 WSW 30 54 16 29 1011.0 - 0.0
21/11:00am 34.3 30.9 5.8 17 15.4 N 13 19 7 10 1010.7 - 0.0
21/10:30am 32.0 28.9 8.9 24 13.0 NNE 15 20 8 11 1010.7 - 0.0
21/10:00am 29.6 26.5 10.2 30 11.0 NNE 17 20 9 11 1010.9 - 0.0
21/09:30am 26.7 23.2 10.8 37 9.0 NNE 20 26 11 14 1011.2 - 0.0
21/09:00am 23.2 20.0 11.9 49 6.4 NNE 20 26 11 14 1011.3 1011.2 0.0
21/08:30am 20.6 17.7 12.3 59 4.7 NNE 19 22 10 12 1011.6 - 0.0
21/08:00am 18.6 16.6 12.6 68 3.4 N 15 20 8 11 1011.6 - 0.0
21/07:30am 16.6 14.7 11.7 73 2.7 N 13 15 7 8 1011.6 - 0.0
21/07:00am 15.7 15.2 12.1 79 2.0 NE 6 6 3 3 1011.7 - 0.0
21/06:30am 14.5 13.8 11.5 82 1.6 NNE 6 7 3 4 1011.4 - 0.0
21/06:00am 14.3 13.5 11.6 84 1.4 N 7 9 4 5 1011.4 1011.3 0.0
21/05:30am 14.6 13.4 11.7 83 1.6 N 9 11 5 6 1011.5 - 0.0
21/05:00am 15.0 13.8 11.6 80 1.8 N 9 9 5 5 1011.4 - 0.0
21/04:30am 15.1 14.0 11.9 81 1.7 N 9 11 5 6 1011.6 - 0.0
21/04:00am 15.0 13.5 12.0 82 1.6 N 11 13 6 7 1011.8 - 0.0
21/03:30am 15.2 14.2 12.3 83 1.6 NNW 9 11 5 6 1012.2 - 0.0
21/03:00am 15.4 14.5 12.7 84 1.5 NNW 9 9 5 5 1012.3 1012.3 0.0
21/02:30am 15.1 14.1 12.4 84 1.5 NW 9 9 5 5 1013.0 - 0.0
21/02:00am 15.0 13.9 12.1 83 1.6 NW 9 13 5 7 1013.5 - 0.0
21/01:30am 15.3 14.4 12.6 84 1.5 N 9 11 5 6 1013.3 - 0.0
21/01:00am 15.5 15.0 12.6 83 1.6 NNW 7 9 4 5 1013.4 - 0.0
21/12:30am 16.1 15.8 13.2 83 1.6 N 7 9 4 5 1013.9 - 0.0
21/12:00am 16.3 15.9 13.0 81 1.8 NE 7 9 4 5 1014.2 1014.2 0.0
 
Date/Time
CDT
Temp
°C
App
Temp
°C
Dew
Point
Rel
Hum
%
Delta-T
°C
Wind Press
QNH
hPa
Press
MSL
hPa
Rain
since 9 am
mm
Dir
 
Spd
km/h
Gust
km/h
Spd
kts
Gust
kts
20/11:30pm 16.3 15.8 12.7 79 2.0 E 7 9 4 5 1014.5 - 0.0
20/11:00pm 16.5 15.2 12.5 77 2.2 ESE 11 13 6 7 1014.7 - 0.0
20/10:30pm 17.4 15.9 13.1 76 2.4 SSE 13 15 7 8 1015.1 - 0.0
20/10:00pm 17.5 15.7 13.4 77 2.3 SSE 15 17 8 9 1015.4 - 0.0
20/09:30pm 17.7 15.5 13.4 76 2.4 SSE 17 19 9 10 1015.3 - 0.0
20/09:00pm 17.8 14.6 13.1 74 2.6 SSE 22 26 12 14 1015.3 1015.2 0.0
20/08:30pm 18.0 14.5 13.3 74 2.7 SSE 24 26 13 14 1015.2 - 0.0
20/08:00pm 18.5 14.6 13.4 72 2.9 SSE 26 30 14 16 1015.1 - 0.0
20/07:30pm 19.0 15.1 13.4 70 3.2 SSE 26 32 14 17 1015.0 - 0.0
20/07:00pm 19.3 15.3 13.0 67 3.6 SSE 26 32 14 17 1014.9 - 0.0
20/06:30pm 19.8 15.9 13.3 66 3.7 S 26 30 14 16 1015.0 - 0.0
20/06:00pm 20.1 15.6 12.6 62 4.2 SSE 28 33 15 18 1014.8 1014.7 0.0
20/05:30pm 20.5 16.0 12.7 61 4.4 S 28 33 15 18 1015.0 - 0.0
20/05:00pm 20.5 15.8 13.2 63 4.2 S 30 35 16 19 1015.2 - 0.0
20/04:30pm 20.7 16.3 12.9 61 4.4 SSE 28 32 15 17 1015.5 - 0.0
20/04:00pm 21.0 16.8 12.4 58 4.8 SSE 26 33 14 18 1015.6 - 0.0
20/03:30pm 21.3 16.9 13.0 59 4.7 SSE 28 33 15 18 1016.0 - 0.0
20/03:00pm 21.2 16.6 12.3 57 5.0 SSE 28 33 15 18 1016.4 1016.3 0.0
20/02:30pm 20.9 15.6 11.3 54 5.3 SSE 30 35 16 19 1016.8 - 0.0
20/02:00pm 21.2 16.1 11.8 55 5.2 SSE 30 35 16 19 1017.2 - 0.0
20/01:30pm 20.6 15.4 11.5 56 5.0 SSE 30 35 16 19 1017.8 - 0.0
20/01:00pm 21.0 16.3 11.9 56 5.1 SSE 28 32 15 17 1018.2 - 0.0
20/12:30pm 20.3 15.2 10.7 54 5.2 SSE 28 33 15 18 1018.5 - 0.0
20/12:00pm 21.7 18.3 11.1 51 5.8 SE 20 35 11 19 1018.7 1018.7 0.0
20/11:30am 21.6 18.7 9.5 46 6.5 SE 15 19 8 10 1019.2 - 0.0
20/11:00am 20.7 17.5 8.4 45 6.4 ESE 15 20 8 11 1019.3 - 0.0
20/10:30am 20.4 18.0 8.7 47 6.1 ESE 11 17 6 9 1019.7 - 0.0
20/10:00am 20.6 17.7 9.8 50 5.8 NE 15 20 8 11 1019.9 - 0.0
20/09:30am 19.4 16.1 9.6 53 5.2 NE 17 22 9 12 1020.0 - 0.0
20/09:00am 17.9 14.9 10.5 62 3.9 NNE 17 20 9 11 1020.3 1020.1 0.0
20/08:30am 17.1 13.9 9.8 62 3.8 NNE 17 20 9 11 1020.0 - 0.0
20/08:00am 16.3 13.0 9.5 64 3.5 NNE 17 20 9 11 1019.9 - 0.0
20/07:30am 15.1 11.8 9.7 70 2.8 N 17 20 9 11 1019.7 - 0.0
20/07:00am 14.4 12.0 10.0 75 2.3 N 13 17 7 9 1019.6 - 0.0
20/06:30am 13.5 11.4 9.9 79 1.9 N 11 15 6 8 1019.3 - 0.0
20/06:00am 13.1 11.0 9.9 81 1.6 N 11 13 6 7 1019.0 1018.8 0.0
20/05:30am 13.3 11.7 10.1 81 1.7 N 9 11 5 6 1018.7 - 0.0
20/05:00am 13.5 11.9 10.1 80 1.8 N 9 11 5 6 1018.4 - 0.0
20/04:30am 13.2 10.5 8.9 75 2.2 ENE 13 15 7 8 1018.3 - 0.0
20/04:00am 13.7 11.5 9.2 74 2.3 ENE 11 13 6 7 1018.4 - 0.0
20/03:30am 13.6 11.3 8.9 73 2.4 ENE 11 13 6 7 1018.4 - 0.0
20/03:00am 13.7 11.3 8.7 72 2.5 E 11 13 6 7 1018.6 1018.6 0.0
20/02:30am 14.4 12.0 8.8 69 2.8 E 11 13 6 7 1019.0 - 0.0
20/02:00am 15.8 12.8 9.2 65 3.4 SE 15 17 8 9 1019.4 - 0.0
20/01:30am 15.9 13.0 9.8 67 3.2 SSE 15 19 8 10 1019.9 - 0.0
20/01:00am 16.1 12.9 9.8 66 3.3 SSE 17 20 9 11 1020.2 - 0.0
20/12:30am 16.1 12.4 9.5 65 3.4 SSE 19 20 10 11 1020.4 - 0.0
20/12:00am 16.2 12.9 9.4 64 3.5 SSE 17 22 9 12 1020.6 1020.5 0.0
 
Date/Time
CDT
Temp
°C
App
Temp
°C
Dew
Point
Rel
Hum
%
Delta-T
°C
Wind Press
QNH
hPa
Press
MSL
hPa
Rain
since 9 am
mm
Dir
 
Spd
km/h
Gust
km/h
Spd
kts
Gust
kts
19/11:30pm 16.3 12.6 9.5 64 3.5 SSE 19 24 10 13 1020.7 - 0.0
19/11:00pm 16.4 12.8 9.8 65 3.5 SSE 19 24 10 13 1021.0 - 0.0
19/10:30pm 16.4 12.5 9.3 63 3.7 S 20 26 11 14 1021.2 - 0.0
19/10:00pm 16.5 12.2 9.4 63 3.7 S 22 26 12 14 1021.2 - 0.0
19/09:30pm 16.6 12.5 10.2 66 3.4 S 22 28 12 15 1021.1 - 0.0
19/09:00pm 16.6 12.3 9.5 63 3.7 S 22 30 12 16 1020.9 1020.8 0.0
19/08:30pm 17.0 12.5 10.1 64 3.6 S 24 30 13 16 1020.9 - 0.0
19/08:00pm 17.0 12.0 9.4 61 4.0 SSW 26 30 14 16 1020.9 - 0.0
19/07:30pm 17.3 12.0 10.0 62 3.9 S 28 35 15 19 1020.9 - 0.0
19/07:00pm 17.7 12.3 9.6 59 4.3 SSW 28 35 15 19 1020.6 - 0.0
19/06:30pm 18.5 13.4 9.3 55 4.8 S 26 33 14 18 1020.4 - 0.0
19/06:00pm 18.8 13.2 10.1 57 4.6 S 30 35 16 19 1020.1 1019.9 0.0

Other Formats:

Comma delimited format used in spreadsheet applications
http://www.bom.gov.au/fwo/IDS60801/IDS60801.94677.axf

JavaScript Object Notation format (JSON) in row-major order
http://www.bom.gov.au/fwo/IDS60801/IDS60801.94677.json